Time;durP1;ratioP1;P1;durP2;ratioP2;P2;SDS_P1;SDS_P2;PMS_P1;PMS_P2;Temp;Humidity;BMP_temperature;BMP_pressure;BME280_temperature;BME280_humidity;BME280_pressure;Samples;Min_cycle;Max_cycle;Signal;HPM_P1;HPM_P2
2022/10/01 00:00:01;;;;;;;4.13;3.72;;;18.90;54.10;;;;;;5962737;24;20176;-84
2022/10/01 00:02:35;;;;;;;4.20;3.80;;;18.80;54.10;;;;;;6029061;23;20173;-84
2022/10/01 00:05:10;;;;;;;4.40;3.92;;;18.90;54.10;;;;;;6108928;23;20682;-83
2022/10/01 00:07:52;;;;;;;4.47;4.05;;;18.80;54.10;;;;;;6109436;23;20153;-84
2022/10/01 00:10:18;;;;;;;4.60;3.90;;;18.90;54.20;;;;;;6086206;23;20185;-84
2022/10/01 00:13:13;;;;;;;4.35;3.80;;;18.80;54.20;;;;;;6032634;23;20321;-83
2022/10/01 00:15:52;;;;;;;5.57;4.10;;;18.80;54.10;;;;;;6109368;23;20153;-83
2022/10/01 00:18:31;;;;;;;4.32;3.92;;;18.80;54.10;;;;;;6110457;23;20153;-84
2022/10/01 00:20:58;;;;;;;4.00;3.58;;;18.80;54.10;;;;;;6021492;23;20240;-84
2022/10/01 00:23:55;;;;;;;4.32;3.80;;;18.90;54.20;;;;;;6052641;23;20182;-83
2022/10/01 00:26:28;;;;;;;4.07;3.67;;;18.80;54.20;;;;;;6000448;23;20158;-83
2022/10/01 00:29:06;;;;;;;4.60;4.07;;;18.80;54.20;;;;;;5889917;24;20164;-83
2022/10/01 00:31:42;;;;;;;4.38;3.95;;;18.80;54.30;;;;;;5867058;24;20165;-84
2022/10/01 00:34:39;;;;;;;4.22;3.72;;;18.90;54.30;;;;;;5890480;24;20161;-84
2022/10/01 00:37:09;;;;;;;4.88;4.03;;;18.80;54.20;;;;;;5913191;24;20157;-83
2022/10/01 00:39:45;;;;;;;4.60;3.92;;;18.80;54.20;;;;;;5891239;24;20153;-83
2022/10/01 00:42:29;;;;;;;4.55;4.10;;;18.80;54.30;;;;;;5832454;24;20189;-83
2022/10/01 00:45:16;;;;;;;4.40;4.00;;;18.80;54.30;;;;;;5806356;24;20163;-83
2022/10/01 00:48:00;;;;;;;4.20;3.80;;;18.80;54.30;;;;;;5807197;24;20673;-84
2022/10/01 00:50:31;;;;;;;4.93;3.83;;;18.80;54.40;;;;;;5780418;24;20164;-83
2022/10/01 00:53:10;;;;;;;4.15;3.75;;;18.80;54.40;;;;;;5822500;24;20166;-84
2022/10/01 00:55:53;;;;;;;4.60;4.05;;;18.80;54.30;;;;;;5894902;24;20171;-84
2022/10/01 00:58:32;;;;;;;4.60;4.10;;;18.80;54.40;;;;;;5872826;24;20221;-84
2022/10/01 01:01:08;;;;;;;4.40;4.00;;;18.80;54.40;;;;;;6000538;23;20248;-83
2022/10/01 01:03:39;;;;;;;4.72;4.00;;;18.80;54.40;;;;;;5960390;23;20161;-83
2022/10/01 01:06:08;;;;;;;4.15;3.75;;;18.80;55.10;;;;;;5937268;23;20150;-83
2022/10/01 01:08:53;;;;;;;4.38;3.97;;;18.80;54.40;;;;;;5984860;23;20150;-83
2022/10/01 01:11:34;;;;;;;4.22;3.83;;;18.80;54.50;;;;;;5962751;23;20205;-83
2022/10/01 01:14:17;;;;;;;4.43;4.03;;;18.80;54.50;;;;;;6029717;23;20149;-83
2022/10/01 01:16:51;;;;;;;4.20;3.80;;;18.80;54.60;;;;;;6011637;23;20150;-83
2022/10/01 01:19:32;;;;;;;4.43;3.90;;;18.70;54.50;;;;;;6033924;23;20184;-83
2022/10/01 01:22:21;;;;;;;4.25;3.85;;;18.80;54.50;;;;;;6066421;23;20166;-83
2022/10/01 01:24:56;;;;;;;4.32;3.60;;;18.80;54.50;;;;;;6145438;23;20437;-83
2022/10/01 01:27:39;;;;;;;4.25;3.70;;;18.70;54.50;;;;;;6121443;23;20147;-83
2022/10/01 01:30:17;;;;;;;5.60;4.03;;;18.80;54.50;;;;;;6222195;23;20145;-83
2022/10/01 01:33:02;;;;;;;4.32;3.83;;;18.80;54.50;;;;;;6161680;23;20157;-83
2022/10/01 01:35:36;;;;;;;4.10;3.63;;;18.80;54.50;;;;;;6141207;23;20153;-83
2022/10/01 01:38:26;;;;;;;5.03;4.38;;;18.80;54.60;;;;;;6186683;23;20149;-83
2022/10/01 01:41:13;;;;;;;4.10;3.70;;;18.80;54.60;;;;;;6173701;23;20191;-83
2022/10/01 01:43:42;;;;;;;4.10;3.70;;;18.70;54.50;;;;;;6145436;23;20237;-83
2022/10/01 01:46:19;;;;;;;4.60;4.00;;;18.80;54.60;;;;;;6145567;23;20147;-84
2022/10/01 01:49:03;;;;;;;4.22;3.83;;;18.80;54.60;;;;;;6140395;23;20156;-83
2022/10/01 01:51:38;;;;;;;4.28;3.88;;;18.70;54.60;;;;;;6116448;23;20156;-83
2022/10/01 01:54:05;;;;;;;3.90;3.50;;;18.70;54.60;;;;;;6057701;23;20212;-83
2022/10/01 01:56:33;;;;;;;4.30;3.88;;;18.70;54.60;;;;;;6024084;23;20155;-83
2022/10/01 01:59:12;;;;;;;4.55;3.80;;;18.80;54.70;;;;;;6024572;23;20166;-83
2022/10/01 02:01:44;;;;;;;4.63;3.97;;;18.70;54.60;;;;;;6000724;23;20186;-83
2022/10/01 02:04:19;;;;;;;4.68;4.00;;;18.70;54.70;;;;;;5995883;24;20223;-83
2022/10/01 02:07:25;;;;;;;4.45;3.90;;;18.80;54.80;;;;;;5995926;24;20162;-84
2022/10/01 02:10:15;;;;;;;4.18;3.78;;;18.80;54.70;;;;;;5996461;24;20155;-83
2022/10/01 02:13:23;;;;;;;4.20;3.80;;;18.70;54.70;;;;;;5947382;24;20169;-83
2022/10/01 02:16:06;;;;;;;3.88;3.30;;;18.70;54.70;;;;;;6023713;23;20208;-84
2022/10/01 02:18:49;;;;;;;4.20;3.80;;;18.70;54.70;;;;;;6010701;23;20155;-83
2022/10/01 02:21:23;;;;;;;4.40;4.00;;;18.70;54.70;;;;;;5991186;24;20213;-84
2022/10/01 02:23:56;;;;;;;4.30;3.90;;;18.80;54.80;;;;;;5989894;23;20167;-83
2022/10/01 02:26:39;;;;;;;4.28;3.88;;;18.70;54.80;;;;;;5967152;24;20164;-82
2022/10/01 02:29:10;;;;;;;4.38;3.90;;;18.70;54.80;;;;;;5972034;24;20157;-83
2022/10/01 02:31:58;;;;;;;4.05;3.65;;;18.70;54.80;;;;;;5932438;24;20160;-83
2022/10/01 02:34:40;;;;;;;4.18;3.78;;;18.70;54.90;;;;;;5945002;24;20160;-83
2022/10/01 02:37:08;;;;;;;4.45;3.92;;;18.70;54.90;;;;;;5989321;24;20159;-83
2022/10/01 02:39:40;;;;;;;4.20;3.70;;;18.70;54.90;;;;;;5949162;24;20166;-83
2022/10/01 02:42:09;;;;;;;4.60;4.10;;;18.70;54.90;;;;;;5996195;24;20258;-83
2022/10/01 02:44:41;;;;;;;4.32;3.80;;;18.70;54.90;;;;;;5968287;24;20166;-83
2022/10/01 02:47:21;;;;;;;4.20;3.80;;;18.70;54.80;;;;;;5902669;24;20161;-84
2022/10/01 02:49:47;;;;;;;4.20;3.80;;;18.70;54.90;;;;;;5890243;24;20659;-83
2022/10/01 02:52:26;;;;;;;4.10;3.70;;;18.70;54.90;;;;;;5925936;24;20224;-84
2022/10/01 02:55:01;;;;;;;4.32;3.63;;;18.70;54.90;;;;;;5962185;24;20157;-84
2022/10/01 02:57:36;;;;;;;4.03;3.63;;;18.70;55.00;;;;;;5940257;24;20160;-83
2022/10/01 03:00:14;;;;;;;3.90;3.47;;;18.70;54.90;;;;;;5939831;24;20240;-83
2022/10/01 03:02:43;;;;;;;4.15;3.75;;;18.70;55.00;;;;;;5967134;24;20178;-84
2022/10/01 03:05:16;;;;;;;4.13;3.70;;;18.70;55.00;;;;;;5968099;24;20159;-83
2022/10/01 03:07:44;;;;;;;4.00;3.60;;;18.70;55.00;;;;;;5944024;24;20160;-84
2022/10/01 03:10:22;;;;;;;4.50;3.60;;;18.70;55.00;;;;;;5943958;24;20208;-84
2022/10/01 03:13:00;;;;;;;4.18;3.67;;;18.70;55.00;;;;;;5989677;24;20193;-83
2022/10/01 03:15:29;;;;;;;3.78;3.47;;;18.70;55.10;;;;;;5967895;24;20160;-83
2022/10/01 03:17:58;;;;;;;3.58;3.28;;;18.70;55.10;;;;;;5910664;24;20157;-84
2022/10/01 03:20:49;;;;;;;4.13;3.72;;;18.70;55.00;;;;;;5986497;24;20184;-83
2022/10/01 03:23:24;;;;;;;4.15;3.53;;;18.70;55.10;;;;;;5916863;24;20164;-83
2022/10/01 03:25:56;;;;;;;3.97;3.58;;;18.70;55.00;;;;;;5986825;24;20603;-84
2022/10/01 03:28:25;;;;;;;4.00;3.60;;;18.70;55.00;;;;;;5968293;24;20164;-83
2022/10/01 03:31:06;;;;;;;3.67;3.38;;;18.70;55.10;;;;;;5959918;24;20187;-83
2022/10/01 03:33:47;;;;;;;4.47;3.85;;;18.70;55.10;;;;;;5945180;24;20156;-83
2022/10/01 03:36:23;;;;;;;3.90;3.50;;;18.70;55.00;;;;;;6013776;23;20157;-83
2022/10/01 03:38:58;;;;;;;4.30;3.83;;;18.70;55.10;;;;;;5995349;24;20158;-83
2022/10/01 03:41:33;;;;;;;3.70;3.40;;;18.70;55.10;;;;;;6010734;23;20293;-84
2022/10/01 03:44:04;;;;;;;4.38;3.70;;;18.60;55.10;;;;;;6001449;23;20175;-83
2022/10/01 03:46:32;;;;;;;4.30;3.53;;;18.70;55.10;;;;;;6002596;23;20163;-83
2022/10/01 03:49:03;;;;;;;4.05;3.53;;;18.70;55.10;;;;;;6051023;23;20166;-83
2022/10/01 03:51:37;;;;;;;4.65;3.75;;;18.70;55.10;;;;;;6005351;23;20154;-83
2022/10/01 03:54:13;;;;;;;3.80;3.40;;;18.70;55.20;;;;;;6091863;23;20166;-83
2022/10/01 03:56:49;;;;;;;4.32;3.88;;;18.70;55.20;;;;;;6094120;23;20157;-83
2022/10/01 03:59:15;;;;;;;4.10;3.70;;;18.70;55.10;;;;;;6069239;23;20239;-84
2022/10/01 04:01:45;;;;;;;3.58;3.25;;;18.70;55.20;;;;;;6069401;23;20484;-83
2022/10/01 04:04:24;;;;;;;4.05;3.60;;;18.70;55.20;;;;;;6069482;23;20215;-83
2022/10/01 04:06:56;;;;;;;4.13;3.35;;;18.70;55.20;;;;;;6069467;23;20148;-84
2022/10/01 04:09:30;;;;;;;3.90;3.50;;;18.70;55.20;;;;;;6077687;23;20649;-83
2022/10/01 04:12:13;;;;;;;4.00;3.47;;;18.70;55.30;;;;;;6127944;23;20288;-83
2022/10/01 04:14:43;;;;;;;4.38;3.33;;;18.60;55.30;;;;;;6098324;23;20175;-83
2022/10/01 04:17:21;;;;;;;4.10;3.70;;;18.70;55.20;;;;;;6073764;23;20168;-83
2022/10/01 04:19:51;;;;;;;3.83;3.50;;;18.70;55.30;;;;;;6101360;23;20186;-82
2022/10/01 04:22:24;;;;;;;3.75;3.40;;;18.70;55.40;;;;;;6126485;23;20154;-83
2022/10/01 04:24:55;;;;;;;4.05;3.65;;;18.70;55.30;;;;;;6099152;23;20155;-83
2022/10/01 04:27:23;;;;;;;3.83;3.40;;;18.60;55.30;;;;;;6145415;23;20151;-83
2022/10/01 04:29:58;;;;;;;3.78;3.30;;;18.60;55.30;;;;;;6121736;23;20180;-83
2022/10/01 04:32:26;;;;;;;3.90;3.50;;;18.60;55.30;;;;;;6120622;23;20155;-83
2022/10/01 04:34:56;;;;;;;4.00;3.60;;;18.70;55.40;;;;;;6121366;23;20659;-83
2022/10/01 04:37:36;;;;;;;3.92;3.53;;;18.60;55.30;;;;;;6120333;23;20179;-83
2022/10/01 04:40:19;;;;;;;4.10;3.70;;;18.70;55.40;;;;;;6145001;23;20187;-83
2022/10/01 04:42:52;;;;;;;3.55;3.20;;;18.70;55.40;;;;;;6145914;23;20155;-83
2022/10/01 04:45:27;;;;;;;3.95;3.55;;;18.70;55.40;;;;;;6098068;23;20159;-83
2022/10/01 04:48:01;;;;;;;3.80;3.40;;;18.60;55.30;;;;;;6121698;23;20175;-83
2022/10/01 04:50:30;;;;;;;3.90;3.55;;;18.60;55.40;;;;;;6110197;23;20222;-83
2022/10/01 04:53:17;;;;;;;3.70;3.30;;;18.60;55.50;;;;;;6170296;23;20538;-83
2022/10/01 04:55:46;;;;;;;3.60;3.30;;;18.70;55.40;;;;;;6144608;23;20155;-84
2022/10/01 04:58:19;;;;;;;3.85;3.30;;;18.70;55.40;;;;;;6140440;23;20499;-83
2022/10/01 05:00:55;;;;;;;3.90;3.50;;;18.70;55.50;;;;;;6045570;23;20184;-83
2022/10/01 05:03:40;;;;;;;3.63;3.33;;;18.60;55.50;;;;;;6091432;23;20152;-83
2022/10/01 05:06:12;;;;;;;3.95;3.47;;;18.70;55.50;;;;;;6094956;23;20163;-84
2022/10/01 05:09:00;;;;;;;4.30;3.90;;;18.60;55.40;;;;;;6091974;23;20152;-84
2022/10/01 05:11:28;;;;;;;3.90;3.50;;;18.60;55.50;;;;;;6035017;23;20217;-83
2022/10/01 05:13:56;;;;;;;3.95;3.40;;;18.60;55.50;;;;;;6120762;23;20190;-83
2022/10/01 05:16:54;;;;;;;3.67;3.30;;;18.60;55.50;;;;;;6121125;23;20151;-83
2022/10/01 05:19:29;;;;;;;4.18;3.47;;;18.60;55.40;;;;;;6029942;23;20231;-84
2022/10/01 05:22:19;;;;;;;3.85;3.40;;;18.60;55.50;;;;;;6031926;23;20159;-83
2022/10/01 05:24:53;;;;;;;3.90;3.50;;;18.70;55.50;;;;;;6110483;23;20476;-83
2022/10/01 05:27:29;;;;;;;3.55;3.25;;;18.60;55.60;;;;;;6108817;23;20152;-83
2022/10/01 05:29:56;;;;;;;3.47;3.17;;;18.70;55.60;;;;;;6135676;23;20167;-84
2022/10/01 05:32:30;;;;;;;4.43;3.70;;;18.60;55.50;;;;;;6120796;23;20151;-84
2022/10/01 05:35:07;;;;;;;3.35;3.03;;;18.60;55.60;;;;;;6096978;23;20155;-84
2022/10/01 05:37:43;;;;;;;4.22;3.42;;;18.70;55.60;;;;;;6120833;23;20280;-83
2022/10/01 05:40:26;;;;;;;3.85;3.55;;;18.60;55.60;;;;;;6124012;23;20175;-84
2022/10/01 05:43:03;;;;;;;3.78;3.38;;;18.60;55.60;;;;;;6055109;23;20154;-83
2022/10/01 05:45:30;;;;;;;3.72;3.40;;;18.60;55.60;;;;;;6027116;23;20178;-82
2022/10/01 05:47:59;;;;;;;3.92;3.42;;;18.60;55.60;;;;;;5974465;23;20166;-83
2022/10/01 05:50:25;;;;;;;3.90;3.50;;;18.60;55.60;;;;;;5915852;24;20730;-83
2022/10/01 05:52:57;;;;;;;3.72;3.40;;;18.60;55.60;;;;;;5913046;24;20192;-81
2022/10/01 05:55:25;;;;;;;3.80;3.35;;;18.60;55.60;;;;;;5907008;24;20239;-81
2022/10/01 05:58:03;;;;;;;3.63;3.33;;;18.60;55.60;;;;;;5944983;24;20159;-82
2022/10/01 06:00:30;;;;;;;4.00;3.50;;;18.60;55.50;;;;;;5942538;24;20207;-81
2022/10/01 06:02:59;;;;;;;3.90;3.50;;;18.60;55.70;;;;;;5941943;24;20207;-82
2022/10/01 06:05:26;;;;;;;3.90;3.30;;;18.70;55.70;;;;;;5941545;24;20199;-82
2022/10/01 06:07:52;;;;;;;3.42;3.13;;;18.60;55.70;;;;;;5941446;24;20156;-82
2022/10/01 06:10:18;;;;;;;3.53;3.22;;;18.60;55.70;;;;;;5940931;24;20164;-82
2022/10/01 06:12:47;;;;;;;3.83;3.53;;;18.60;55.70;;;;;;5944050;23;20204;-82
2022/10/01 06:15:18;;;;;;;3.47;3.17;;;18.60;55.80;;;;;;5951415;23;20159;-82
2022/10/01 06:17:48;;;;;;;4.10;3.70;;;18.60;55.70;;;;;;6048196;23;20602;-81
2022/10/01 06:20:18;;;;;;;3.95;3.35;;;18.60;55.70;;;;;;6046152;23;20195;-80
2022/10/01 06:22:55;;;;;;;4.10;3.70;;;18.60;55.80;;;;;;6199256;23;20158;-82
2022/10/01 06:25:22;;;;;;;3.40;3.10;;;18.60;55.80;;;;;;6125409;23;20146;-83
2022/10/01 06:27:57;;;;;;;3.50;3.20;;;18.50;55.80;;;;;;6149541;23;20208;-82
2022/10/01 06:30:30;;;;;;;3.67;3.28;;;18.50;55.70;;;;;;6150906;23;20164;-82
2022/10/01 06:33:05;;;;;;;3.53;3.22;;;18.60;55.80;;;;;;6115774;23;20219;-82
2022/10/01 06:35:34;;;;;;;4.45;3.25;;;18.60;55.80;;;;;;6165666;23;20191;-83
2022/10/01 06:38:05;;;;;;;3.80;3.47;;;18.60;55.80;;;;;;6141556;23;20162;-82
2022/10/01 06:40:35;;;;;;;3.30;3.00;;;18.60;55.80;;;;;;6116046;23;20183;-82
2022/10/01 06:46:33;;;;;;;3.88;3.42;;;18.60;55.80;;;;;;5991975;24;20215;-81
2022/10/01 06:49:05;;;;;;;3.38;3.08;;;18.60;55.80;;;;;;5936250;24;20185;-82
2022/10/01 06:54:33;;;;;;;3.92;3.00;;;18.60;55.90;;;;;;5917543;24;20176;-82
2022/10/01 06:57:04;;;;;;;3.38;3.08;;;18.60;55.90;;;;;;5891958;24;20164;-82
2022/10/01 06:59:51;;;;;;;3.75;3.30;;;18.60;55.90;;;;;;5914737;24;20185;-82
2022/10/01 07:02:22;;;;;;;3.53;3.17;;;18.60;55.80;;;;;;5893970;24;20156;-81
2022/10/01 07:04:58;;;;;;;3.50;3.20;;;18.60;55.90;;;;;;5881510;24;20154;-82
2022/10/01 07:07:38;;;;;;;3.30;3.00;;;18.50;55.90;;;;;;5861088;24;20239;-80
2022/10/01 07:10:36;;;;;;;3.30;3.00;;;18.60;55.90;;;;;;5825850;24;20190;-82
2022/10/01 07:40:17;;;;;;;;;;;;;;;;;;;;;
2022/10/01 07:43:43;;;;;;;;;;;;;;;;;;;;;
2022/10/01 09:20:54;;;;;;;2.60;2.40;;;19.00;59.40;;;;;;5882555;22;8664388;-81
2022/10/01 09:24:02;;;;;;;2.90;2.60;;;19.10;59.90;;;;;;6120236;23;20156;-81
2022/10/01 09:26:34;;;;;;;2.90;2.33;;;19.10;60.10;;;;;;6091336;23;20152;-81
2022/10/01 09:29:59;;;;;;;4.53;2.47;;;19.00;59.90;;;;;;6091554;23;20215;-82
2022/10/01 09:32:59;;;;;;;2.50;2.30;;;19.10;60.10;;;;;;5853849;24;20182;-82
2022/10/01 09:36:08;;;;;;;;;;;;;;;;;;;;;
2022/10/01 09:42:49;;;;;;;3.17;2.42;;;19.10;60.10;;;;;;5837937;24;20167;-81
2022/10/01 09:52:33;;;;;;;2.70;2.50;;;19.10;60.30;;;;;;5731924;25;20172;-82
2022/10/01 09:55:02;;;;;;;2.90;2.60;;;19.10;60.50;;;;;;5719781;25;20633;-82
2022/10/01 09:57:37;;;;;;;3.00;2.70;;;19.10;60.60;;;;;;5653903;25;20164;-81
2022/10/01 10:00:32;;;;;;;;;;;;;;;;;;;;;
2022/10/01 10:03:26;;;;;;;3.92;2.60;;;19.10;60.50;;;;;;5646139;25;20574;-82
2022/10/01 10:06:40;;;;;;;3.83;2.90;;;19.10;60.60;;;;;;5630546;25;20174;-82
2022/10/01 10:09:16;;;;;;;4.15;2.75;;;19.10;60.60;;;;;;5680104;25;20214;-84
2022/10/01 10:11:58;;;;;;;4.45;2.72;;;19.00;60.40;;;;;;5740052;25;20225;-83
2022/10/01 10:14:48;;;;;;;2.90;2.70;;;19.10;60.50;;;;;;5717479;25;20157;-83
2022/10/01 10:17:17;;;;;;;3.83;2.72;;;19.10;60.60;;;;;;5759001;25;20180;-83
2022/10/01 10:19:52;;;;;;;3.40;2.70;;;19.10;60.60;;;;;;5727358;25;20163;-84
2022/10/01 10:22:44;;;;;;;3.42;2.67;;;19.10;60.70;;;;;;5736640;25;20224;-83
2022/10/01 10:25:39;;;;;;;4.72;2.80;;;19.20;61.60;;;;;;5758153;24;20164;-83
2022/10/01 10:29:03;;;;;;;4.40;2.70;;;19.20;61.30;;;;;;5779317;24;20293;-84
2022/10/01 10:31:39;;;;;;;3.80;3.20;;;19.20;61.20;;;;;;5718569;24;20212;-83
2022/10/01 10:41:28;;;;;;;3.17;2.88;;;19.10;61.20;;;;;;5650911;25;20200;-83
2022/10/01 10:44:14;;;;;;;3.55;2.65;;;19.10;61.40;;;;;;5607836;25;20169;-84
2022/10/01 10:46:41;;;;;;;4.13;3.17;;;19.10;61.50;;;;;;5720573;25;20173;-83
2022/10/01 10:49:48;;;;;;;3.20;2.83;;;19.10;61.50;;;;;;5705532;25;20203;-83
2022/10/01 10:52:32;;;;;;;4.22;2.50;;;19.10;62.00;;;;;;5706968;25;20159;-83
2022/10/01 10:55:25;;;;;;;4.03;3.10;;;19.10;61.70;;;;;;5732795;25;20171;-83
2022/10/01 10:57:52;;;;;;;4.60;2.70;;;19.20;61.60;;;;;;5711068;25;20172;-81
2022/10/01 11:00:26;;;;;;;2.70;2.50;;;19.20;61.50;;;;;;5730654;25;20221;-83
2022/10/01 11:04:10;;;;;;;3.15;2.70;;;19.20;61.60;;;;;;5830501;24;20175;-81
2022/10/01 11:07:12;;;;;;;4.88;3.10;;;19.20;61.40;;;;;;5857808;24;20190;-81
2022/10/01 11:10:25;;;;;;;4.45;3.13;;;19.20;61.10;;;;;;5828974;24;20246;-82
2022/10/01 11:13:18;;;;;;;3.97;2.80;;;19.30;61.10;;;;;;5829779;24;20225;-82
2022/10/01 11:16:05;;;;;;;4.07;3.30;;;19.20;61.10;;;;;;5853363;24;20166;-81
2022/10/01 11:18:55;;;;;;;4.47;3.45;;;19.20;61.10;;;;;;5936713;24;20155;-81
2022/10/01 11:21:49;;;;;;;3.00;2.70;;;19.30;61.10;;;;;;5987042;23;20331;-82
2022/10/01 11:24:45;;;;;;;2.97;2.67;;;19.30;61.10;;;;;;5999682;23;20158;-82
2022/10/01 11:27:31;;;;;;;4.53;3.13;;;19.30;61.00;;;;;;5915732;24;20161;-83
2022/10/01 11:30:21;;;;;;;3.00;2.80;;;19.30;61.00;;;;;;5835672;24;20190;-82
2022/10/01 11:33:26;;;;;;;3.13;2.80;;;19.30;60.90;;;;;;5856903;24;20222;-82
2022/10/01 11:37:00;;;;;;;3.35;3.05;;;19.30;60.70;;;;;;5858003;24;20158;-82
2022/10/01 11:40:03;;;;;;;3.50;3.20;;;19.30;60.80;;;;;;5855543;24;20175;-82
2022/10/01 11:42:54;;;;;;;4.35;2.90;;;19.40;60.80;;;;;;5857760;24;20189;-82
2022/10/01 11:45:28;;;;;;;5.28;2.90;;;19.40;60.80;;;;;;5862980;24;20154;-82
2022/10/01 11:48:50;;;;;;;3.47;2.80;;;19.40;60.80;;;;;;5839850;24;20170;-82
2022/10/01 12:04:37;;;;;;;;;;;;;;;;;;;;;
2022/10/01 12:10:54;;;;;;;4.45;2.90;;;19.40;61.30;;;;;;5922537;24;20634;-83
2022/10/01 12:13:44;;;;;;;4.47;3.38;;;19.40;61.40;;;;;;5951991;24;20195;-82
2022/10/01 12:16:41;;;;;;;3.97;2.90;;;19.40;61.50;;;;;;5970495;24;20219;-83
2022/10/01 12:19:37;;;;;;;3.67;3.38;;;19.40;61.40;;;;;;5912017;24;20154;-82
2022/10/01 12:22:19;;;;;;;4.50;3.50;;;19.40;61.40;;;;;;5948248;24;20200;-82
2022/10/01 12:25:13;;;;;;;3.80;3.50;;;19.30;61.40;;;;;;5916074;24;20152;-83
2022/10/01 12:28:15;;;;;;;3.13;2.83;;;19.40;61.50;;;;;;5966866;24;20160;-82
2022/10/01 12:30:53;;;;;;;3.70;3.10;;;19.40;62.30;;;;;;5986734;23;20190;-82
2022/10/01 12:33:56;;;;;;;3.92;3.63;;;19.40;61.30;;;;;;5943048;24;20199;-82
2022/10/01 12:40:29;;;;;;;4.05;3.75;;;19.40;61.20;;;;;;5994583;24;20158;-82
2022/10/01 12:44:17;;;;;;;3.63;3.25;;;19.40;61.20;;;;;;5958158;24;20236;-82
2022/10/01 12:47:22;;;;;;;3.75;3.45;;;19.40;61.20;;;;;;5937639;24;20161;-82
2022/10/01 12:50:11;;;;;;;3.45;3.15;;;19.40;61.20;;;;;;5939814;24;20204;-83
2022/10/01 12:53:07;;;;;;;3.70;3.40;;;19.40;61.20;;;;;;5883641;24;20158;-82
2022/10/01 12:56:29;;;;;;;3.70;3.40;;;19.40;61.30;;;;;;5854179;24;20158;-82
2022/10/01 12:59:10;;;;;;;3.90;3.42;;;19.40;61.20;;;;;;5861892;24;20321;-82
2022/10/01 13:02:04;;;;;;;3.50;3.20;;;19.40;61.00;;;;;;5883901;24;20268;-83
2022/10/01 13:05:15;;;;;;;3.83;3.53;;;19.40;61.00;;;;;;5902315;24;20625;-82
2022/10/01 13:08:19;;;;;;;4.00;3.53;;;19.40;61.20;;;;;;5866095;24;20476;-82
2022/10/01 13:11:09;;;;;;;3.90;3.60;;;19.40;60.90;;;;;;5883323;24;20237;-82
2022/10/01 13:13:39;;;;;;;4.38;3.97;;;19.40;60.60;;;;;;5865476;24;20154;-83
2022/10/01 13:16:34;;;;;;;3.95;3.65;;;19.30;60.30;;;;;;5910088;24;20164;-82
2022/10/01 13:19:34;;;;;;;4.10;3.70;;;19.30;59.70;;;;;;5882401;24;20623;-83
2022/10/01 13:22:33;;;;;;;4.00;3.60;;;19.30;59.90;;;;;;5963915;24;20208;-82
2022/10/01 13:25:51;;;;;;;4.28;3.88;;;19.30;59.90;;;;;;5964929;24;20179;-81
2022/10/01 13:28:57;;;;;;;4.18;3.80;;;19.30;59.80;;;;;;5965238;24;20603;-81
2022/10/01 13:31:48;;;;;;;4.57;4.18;;;19.30;59.50;;;;;;5946621;24;20239;-82
2022/10/01 13:34:39;;;;;;;4.68;4.28;;;19.30;59.20;;;;;;5937629;24;20161;-80
2022/10/01 13:37:32;;;;;;;5.03;4.55;;;19.30;59.10;;;;;;5961980;24;20605;-81
2022/10/01 13:40:25;;;;;;;4.38;3.97;;;19.30;59.00;;;;;;5939973;24;20208;-81
2022/10/01 13:43:09;;;;;;;4.30;4.00;;;19.30;58.90;;;;;;5934720;24;20165;-81
2022/10/01 13:46:01;;;;;;;4.43;4.03;;;19.20;58.80;;;;;;5914628;24;20256;-81
2022/10/01 13:48:48;;;;;;;4.18;3.78;;;19.30;58.80;;;;;;5910996;24;20200;-80
2022/10/01 13:51:19;;;;;;;4.60;4.20;;;19.30;58.60;;;;;;5928953;24;20195;-82
2022/10/01 13:54:00;;;;;;;4.38;3.97;;;19.30;59.30;;;;;;5958981;24;20157;-81
2022/10/01 13:56:44;;;;;;;4.03;3.70;;;19.30;58.20;;;;;;5916418;24;20523;-81
2022/10/01 14:03:34;;;;;;;4.40;4.00;;;19.40;58.10;;;;;;5968111;24;20514;-81
2022/10/01 14:06:55;;;;;;;;;;;;;;;;;;;;;
2022/10/01 14:09:51;;;;;;;4.03;3.72;;;19.40;57.80;;;;;;5881555;24;20225;-82
2022/10/01 14:16:19;;;;;;;4.88;4.47;;;19.40;57.70;;;;;;5858669;24;20269;-82
2022/10/01 14:18:58;;;;;;;3.80;3.50;;;19.40;57.70;;;;;;5912200;24;20160;-82
2022/10/01 14:21:37;;;;;;;4.00;3.70;;;19.40;58.20;;;;;;5889716;24;20844;-82
2022/10/01 14:24:34;;;;;;;4.35;3.63;;;19.40;57.50;;;;;;5961473;24;20228;-84
2022/10/01 14:27:29;;;;;;;3.53;3.22;;;19.40;57.40;;;;;;5917536;24;20497;-82
2022/10/01 14:30:21;;;;;;;3.70;3.40;;;19.40;57.20;;;;;;5891274;24;20343;-83
2022/10/01 14:33:33;;;;;;;4.15;3.75;;;19.40;57.20;;;;;;5865437;24;20156;-84
2022/10/01 14:36:20;;;;;;;3.60;3.30;;;19.40;57.10;;;;;;5843528;24;20176;-84
2022/10/01 14:39:22;;;;;;;3.78;3.45;;;19.40;57.00;;;;;;5804260;24;20170;-84
2022/10/01 14:41:50;;;;;;;4.28;3.88;;;19.40;57.00;;;;;;5945123;24;20280;-84
2022/10/01 14:44:33;;;;;;;3.58;3.28;;;19.40;57.10;;;;;;5965468;24;20171;-84
2022/10/01 14:47:24;;;;;;;3.60;3.30;;;19.50;57.00;;;;;;5920891;24;20228;-83
2022/10/01 14:50:11;;;;;;;3.72;3.42;;;19.40;56.90;;;;;;5838666;24;20225;-84
2022/10/01 14:52:43;;;;;;;4.22;3.72;;;19.50;57.00;;;;;;5807562;24;20523;-83
2022/10/01 14:55:14;;;;;;;5.15;3.90;;;19.50;57.00;;;;;;5811718;24;20568;-84
2022/10/01 14:57:48;;;;;;;3.97;3.60;;;19.50;57.00;;;;;;5787774;24;20158;-83
2022/10/01 15:00:22;;;;;;;4.07;3.67;;;19.50;57.00;;;;;;5803943;24;20186;-83
2022/10/01 15:03:03;;;;;;;4.00;3.60;;;19.50;57.00;;;;;;5805290;24;20157;-83
2022/10/01 15:05:47;;;;;;;4.65;4.10;;;19.50;57.00;;;;;;5756590;24;20746;-84
2022/10/01 15:08:25;;;;;;;3.83;3.53;;;19.60;57.10;;;;;;5802989;24;20269;-83
2022/10/01 15:10:59;;;;;;;4.10;3.80;;;19.50;57.10;;;;;;5782405;24;20165;-83
2022/10/01 15:13:41;;;;;;;4.25;3.88;;;19.50;57.10;;;;;;5757247;25;20165;-83
2022/10/01 15:16:18;;;;;;;4.03;3.72;;;19.50;57.10;;;;;;5750336;24;20156;-83
2022/10/01 15:19:01;;;;;;;3.95;3.65;;;19.50;57.20;;;;;;5855108;24;20162;-83
2022/10/01 15:21:39;;;;;;;4.85;4.10;;;19.60;57.20;;;;;;5881938;24;20162;-83
2022/10/01 15:24:22;;;;;;;4.10;3.70;;;19.60;57.20;;;;;;5895796;24;20240;-83
2022/10/01 15:27:05;;;;;;;4.47;4.07;;;19.60;57.20;;;;;;5827412;24;20167;-82
2022/10/01 15:29:41;;;;;;;5.15;4.40;;;19.60;57.30;;;;;;5880636;24;20228;-83
2022/10/01 15:32:35;;;;;;;4.40;4.00;;;19.50;57.30;;;;;;5861409;24;20190;-83
2022/10/01 15:35:08;;;;;;;4.63;4.22;;;19.60;57.40;;;;;;5885435;24;20221;-83
2022/10/01 15:41:36;;;;;;;4.18;3.88;;;19.60;57.60;;;;;;5939933;24;20163;-82
2022/10/01 15:44:35;;;;;;;4.35;3.95;;;19.60;57.60;;;;;;5908202;24;20167;-82
2022/10/01 15:47:27;;;;;;;4.72;4.13;;;19.60;57.70;;;;;;5944978;24;20198;-82
2022/10/01 15:50:10;;;;;;;4.40;4.00;;;19.60;57.80;;;;;;5991256;24;20268;-82
2022/10/01 15:56:18;;;;;;;4.65;4.15;;;19.60;58.00;;;;;;5858004;24;20219;-82
2022/10/01 16:02:27;;;;;;;4.60;4.20;;;19.60;58.30;;;;;;5862287;24;20169;-82
2022/10/01 16:05:03;;;;;;;4.60;4.20;;;19.50;58.30;;;;;;5842140;24;20162;-82
2022/10/01 16:11:28;;;;;;;5.72;4.57;;;19.50;58.60;;;;;;5884861;24;20172;-83
2022/10/01 16:20:44;;;;;;;4.72;4.32;;;19.50;58.90;;;;;;5884922;24;20166;-83
2022/10/01 16:23:48;;;;;;;5.35;4.20;;;19.50;58.90;;;;;;5870956;24;20203;-83
2022/10/01 16:26:37;;;;;;;4.93;4.43;;;19.50;59.10;;;;;;5934741;24;20168;-82
2022/10/01 16:29:27;;;;;;;4.90;4.40;;;19.50;59.00;;;;;;5862908;24;20185;-82
2022/10/01 16:32:02;;;;;;;4.68;4.28;;;19.50;59.20;;;;;;5862304;24;20186;-83
2022/10/01 16:34:45;;;;;;;5.07;4.63;;;19.50;59.20;;;;;;5862959;24;20169;-83
2022/10/01 16:37:37;;;;;;;5.07;4.57;;;19.50;59.40;;;;;;5864161;24;20165;-83
2022/10/01 16:40:51;;;;;;;4.90;4.50;;;19.50;59.40;;;;;;6015779;23;20166;-82
2022/10/01 16:43:39;;;;;;;5.20;4.70;;;19.50;59.50;;;;;;6028559;23;20158;-83
2022/10/01 16:46:51;;;;;;;5.85;4.40;;;19.50;59.60;;;;;;6027953;23;20154;-83
2022/10/01 16:49:41;;;;;;;5.32;4.80;;;19.50;59.60;;;;;;5999347;23;20215;-82
2022/10/01 16:52:55;;;;;;;4.97;4.50;;;19.50;59.70;;;;;;5956226;23;20166;-83
2022/10/01 16:55:29;;;;;;;4.95;4.45;;;19.50;59.80;;;;;;5998826;23;20234;-83
2022/10/01 16:58:11;;;;;;;4.95;4.55;;;19.40;59.80;;;;;;5976455;23;20237;-83
2022/10/01 17:01:09;;;;;;;5.43;4.93;;;19.40;59.90;;;;;;5945943;23;20154;-83
2022/10/01 17:03:45;;;;;;;4.93;4.53;;;19.50;60.00;;;;;;5999883;23;20190;-83
2022/10/01 17:07:04;;;;;;;5.47;4.90;;;19.40;59.90;;;;;;5979572;23;20188;-83
2022/10/01 17:13:37;;;;;;;5.18;4.68;;;19.40;60.10;;;;;;6020357;23;20175;-83
2022/10/01 17:19:57;;;;;;;5.38;4.88;;;19.40;60.10;;;;;;5939185;24;20143;-82
2022/10/01 17:22:24;;;;;;;5.28;4.78;;;19.50;60.40;;;;;;5835588;24;20255;-83
2022/10/01 17:31:59;;;;;;;5.75;5.15;;;19.40;60.50;;;;;;5874555;24;20215;-83
2022/10/01 17:35:09;;;;;;;5.18;4.68;;;19.40;60.60;;;;;;5885806;24;20229;-83
2022/10/01 17:38:02;;;;;;;5.38;4.88;;;19.40;60.70;;;;;;5886720;24;20157;-83
2022/10/01 17:44:16;;;;;;;5.43;4.93;;;19.40;60.70;;;;;;5886728;24;20245;-83
2022/10/01 17:54:19;;;;;;;5.72;5.18;;;19.40;60.80;;;;;;5884676;24;20199;-82